sensor_id;sensor_type;location;lat;lon;timestamp;P1;durP1;ratioP1;P2;durP2;ratioP2
70505;SDS011;58032;49.820;6.274;2024-03-22T00:00:57;8.68;;;3.55;;
70505;SDS011;58032;49.820;6.274;2024-03-22T00:03:23;10.70;;;3.92;;
70505;SDS011;58032;49.820;6.274;2024-03-22T00:05:49;10.43;;;3.55;;
70505;SDS011;58032;49.820;6.274;2024-03-22T00:08:15;8.40;;;3.70;;
70505;SDS011;58032;49.820;6.274;2024-03-22T00:10:41;9.35;;;4.07;;
70505;SDS011;58032;49.820;6.274;2024-03-22T00:13:08;10.82;;;3.70;;
70505;SDS011;58032;49.820;6.274;2024-03-22T00:15:34;10.07;;;3.70;;
70505;SDS011;58032;49.820;6.274;2024-03-22T00:18:00;9.80;;;3.65;;
70505;SDS011;58032;49.820;6.274;2024-03-22T00:20:26;11.33;;;4.07;;
70505;SDS011;58032;49.820;6.274;2024-03-22T00:22:52;7.72;;;3.30;;
70505;SDS011;58032;49.820;6.274;2024-03-22T00:25:19;11.20;;;4.25;;
70505;SDS011;58032;49.820;6.274;2024-03-22T00:27:45;10.50;;;3.45;;
70505;SDS011;58032;49.820;6.274;2024-03-22T00:30:11;7.90;;;3.47;;
70505;SDS011;58032;49.820;6.274;2024-03-22T00:32:37;7.93;;;3.37;;
70505;SDS011;58032;49.820;6.274;2024-03-22T00:35:03;9.40;;;3.67;;
70505;SDS011;58032;49.820;6.274;2024-03-22T00:37:30;8.77;;;3.65;;
70505;SDS011;58032;49.820;6.274;2024-03-22T00:39:56;9.00;;;3.65;;
70505;SDS011;58032;49.820;6.274;2024-03-22T00:42:22;9.18;;;3.40;;
70505;SDS011;58032;49.820;6.274;2024-03-22T00:44:49;7.97;;;3.17;;
70505;SDS011;58032;49.820;6.274;2024-03-22T00:47:15;8.00;;;3.58;;
70505;SDS011;58032;49.820;6.274;2024-03-22T00:49:41;9.75;;;3.88;;
70505;SDS011;58032;49.820;6.274;2024-03-22T00:52:07;7.43;;;3.20;;
70505;SDS011;58032;49.820;6.274;2024-03-22T00:54:33;9.18;;;3.45;;
70505;SDS011;58032;49.820;6.274;2024-03-22T00:57:01;9.80;;;3.53;;
70505;SDS011;58032;49.820;6.274;2024-03-22T00:59:27;7.93;;;3.28;;
70505;SDS011;58032;49.820;6.274;2024-03-22T01:01:54;8.77;;;3.20;;
70505;SDS011;58032;49.820;6.274;2024-03-22T01:04:20;8.25;;;3.15;;
70505;SDS011;58032;49.820;6.274;2024-03-22T01:06:46;9.95;;;4.05;;
70505;SDS011;58032;49.820;6.274;2024-03-22T01:09:12;7.93;;;3.23;;
70505;SDS011;58032;49.820;6.274;2024-03-22T01:11:38;7.18;;;3.05;;
70505;SDS011;58032;49.820;6.274;2024-03-22T01:14:04;7.80;;;3.42;;
70505;SDS011;58032;49.820;6.274;2024-03-22T01:16:31;9.38;;;3.47;;
70505;SDS011;58032;49.820;6.274;2024-03-22T01:18:57;7.35;;;3.22;;
70505;SDS011;58032;49.820;6.274;2024-03-22T01:21:23;6.70;;;3.03;;
70505;SDS011;58032;49.820;6.274;2024-03-22T01:23:54;8.52;;;2.95;;
70505;SDS011;58032;49.820;6.274;2024-03-22T01:26:20;9.55;;;2.80;;
70505;SDS011;58032;49.820;6.274;2024-03-22T01:28:47;8.13;;;3.20;;
70505;SDS011;58032;49.820;6.274;2024-03-22T01:31:13;6.60;;;2.97;;
70505;SDS011;58032;49.820;6.274;2024-03-22T01:33:39;8.23;;;2.77;;
70505;SDS011;58032;49.820;6.274;2024-03-22T01:36:05;7.18;;;2.90;;
70505;SDS011;58032;49.820;6.274;2024-03-22T01:38:32;6.75;;;3.10;;
70505;SDS011;58032;49.820;6.274;2024-03-22T01:40:58;7.85;;;2.88;;
70505;SDS011;58032;49.820;6.274;2024-03-22T01:43:24;9.02;;;3.10;;
70505;SDS011;58032;49.820;6.274;2024-03-22T01:45:50;8.43;;;3.03;;
70505;SDS011;58032;49.820;6.274;2024-03-22T01:48:17;6.50;;;2.78;;
70505;SDS011;58032;49.820;6.274;2024-03-22T01:50:43;7.80;;;3.03;;
70505;SDS011;58032;49.820;6.274;2024-03-22T01:53:09;7.55;;;3.30;;
70505;SDS011;58032;49.820;6.274;2024-03-22T01:55:36;8.85;;;3.53;;
70505;SDS011;58032;49.820;6.274;2024-03-22T01:58:02;7.37;;;3.07;;
70505;SDS011;58032;49.820;6.274;2024-03-22T02:00:29;7.97;;;3.20;;
70505;SDS011;58032;49.820;6.274;2024-03-22T02:02:57;7.65;;;3.42;;
70505;SDS011;58032;49.820;6.274;2024-03-22T02:05:23;9.98;;;3.65;;
70505;SDS011;58032;49.820;6.274;2024-03-22T02:07:50;7.65;;;3.65;;
70505;SDS011;58032;49.820;6.274;2024-03-22T02:10:16;8.57;;;3.30;;
70505;SDS011;58032;49.820;6.274;2024-03-22T02:12:43;7.20;;;3.25;;
70505;SDS011;58032;49.820;6.274;2024-03-22T02:15:09;7.53;;;3.38;;
70505;SDS011;58032;49.820;6.274;2024-03-22T02:17:35;8.60;;;3.40;;
70505;SDS011;58032;49.820;6.274;2024-03-22T02:20:02;7.80;;;3.35;;
70505;SDS011;58032;49.820;6.274;2024-03-22T02:22:30;6.90;;;3.03;;
70505;SDS011;58032;49.820;6.274;2024-03-22T02:24:56;10.50;;;3.05;;
70505;SDS011;58032;49.820;6.274;2024-03-22T02:31:14;7.97;;;3.22;;
70505;SDS011;58032;49.820;6.274;2024-03-22T02:33:41;7.68;;;3.33;;
70505;SDS011;58032;49.820;6.274;2024-03-22T02:36:07;8.27;;;3.30;;
70505;SDS011;58032;49.820;6.274;2024-03-22T02:38:33;7.82;;;3.60;;
70505;SDS011;58032;49.820;6.274;2024-03-22T02:40:59;8.20;;;3.72;;
70505;SDS011;58032;49.820;6.274;2024-03-22T02:43:25;9.25;;;3.47;;
70505;SDS011;58032;49.820;6.274;2024-03-22T02:45:51;9.05;;;3.67;;
70505;SDS011;58032;49.820;6.274;2024-03-22T02:48:17;10.30;;;3.60;;
70505;SDS011;58032;49.820;6.274;2024-03-22T02:50:43;7.50;;;3.40;;
70505;SDS011;58032;49.820;6.274;2024-03-22T02:53:09;8.10;;;3.42;;
70505;SDS011;58032;49.820;6.274;2024-03-22T02:55:40;6.75;;;3.10;;
70505;SDS011;58032;49.820;6.274;2024-03-22T02:58:07;6.78;;;3.45;;
70505;SDS011;58032;49.820;6.274;2024-03-22T03:00:37;12.20;;;3.60;;
70505;SDS011;58032;49.820;6.274;2024-03-22T03:03:04;8.15;;;3.67;;
70505;SDS011;58032;49.820;6.274;2024-03-22T03:05:31;8.75;;;3.63;;
70505;SDS011;58032;49.820;6.274;2024-03-22T03:07:57;7.35;;;2.95;;
70505;SDS011;58032;49.820;6.274;2024-03-22T03:10:23;7.60;;;2.80;;
70505;SDS011;58032;49.820;6.274;2024-03-22T03:12:50;9.00;;;3.20;;
70505;SDS011;58032;49.820;6.274;2024-03-22T03:15:17;11.68;;;3.58;;
70505;SDS011;58032;49.820;6.274;2024-03-22T03:17:43;8.70;;;3.67;;
70505;SDS011;58032;49.820;6.274;2024-03-22T03:20:10;10.90;;;3.42;;
70505;SDS011;58032;49.820;6.274;2024-03-22T03:22:39;8.00;;;3.42;;
70505;SDS011;58032;49.820;6.274;2024-03-22T03:25:06;8.57;;;3.33;;
70505;SDS011;58032;49.820;6.274;2024-03-22T03:27:33;10.65;;;3.55;;
70505;SDS011;58032;49.820;6.274;2024-03-22T03:29:59;7.65;;;3.30;;
70505;SDS011;58032;49.820;6.274;2024-03-22T03:32:26;7.72;;;3.30;;
70505;SDS011;58032;49.820;6.274;2024-03-22T03:34:52;8.05;;;3.42;;
70505;SDS011;58032;49.820;6.274;2024-03-22T03:37:18;7.80;;;3.10;;
70505;SDS011;58032;49.820;6.274;2024-03-22T03:39:44;7.50;;;3.60;;
70505;SDS011;58032;49.820;6.274;2024-03-22T03:42:11;8.70;;;3.33;;
70505;SDS011;58032;49.820;6.274;2024-03-22T03:44:37;8.43;;;3.78;;
70505;SDS011;58032;49.820;6.274;2024-03-22T03:47:03;10.60;;;4.25;;
70505;SDS011;58032;49.820;6.274;2024-03-22T03:49:29;7.40;;;3.20;;
70505;SDS011;58032;49.820;6.274;2024-03-22T03:51:55;9.60;;;3.67;;
70505;SDS011;58032;49.820;6.274;2024-03-22T03:54:21;8.00;;;3.80;;
70505;SDS011;58032;49.820;6.274;2024-03-22T03:56:47;9.25;;;4.15;;
70505;SDS011;58032;49.820;6.274;2024-03-22T03:59:13;8.48;;;3.53;;
70505;SDS011;58032;49.820;6.274;2024-03-22T04:01:39;8.60;;;3.20;;
70505;SDS011;58032;49.820;6.274;2024-03-22T04:04:05;11.25;;;3.50;;
70505;SDS011;58032;49.820;6.274;2024-03-22T04:06:31;7.47;;;3.15;;
70505;SDS011;58032;49.820;6.274;2024-03-22T04:08:57;10.07;;;3.65;;
70505;SDS011;58032;49.820;6.274;2024-03-22T04:11:23;10.52;;;3.65;;
70505;SDS011;58032;49.820;6.274;2024-03-22T04:13:49;8.60;;;3.85;;
70505;SDS011;58032;49.820;6.274;2024-03-22T04:16:15;9.07;;;3.55;;
70505;SDS011;58032;49.820;6.274;2024-03-22T04:18:41;8.23;;;3.63;;
70505;SDS011;58032;49.820;6.274;2024-03-22T04:21:08;8.02;;;3.47;;
70505;SDS011;58032;49.820;6.274;2024-03-22T04:23:34;8.57;;;3.70;;
70505;SDS011;58032;49.820;6.274;2024-03-22T04:26:00;9.07;;;3.90;;
70505;SDS011;58032;49.820;6.274;2024-03-22T04:28:27;11.68;;;4.03;;
70505;SDS011;58032;49.820;6.274;2024-03-22T04:30:58;8.45;;;3.55;;
70505;SDS011;58032;49.820;6.274;2024-03-22T04:33:26;8.95;;;3.92;;
70505;SDS011;58032;49.820;6.274;2024-03-22T04:35:53;9.80;;;3.90;;
70505;SDS011;58032;49.820;6.274;2024-03-22T04:38:20;9.98;;;3.88;;
70505;SDS011;58032;49.820;6.274;2024-03-22T04:40:46;8.57;;;4.88;;
70505;SDS011;58032;49.820;6.274;2024-03-22T04:43:12;12.43;;;4.18;;
70505;SDS011;58032;49.820;6.274;2024-03-22T04:45:38;8.38;;;4.10;;
70505;SDS011;58032;49.820;6.274;2024-03-22T04:48:04;8.23;;;3.53;;
70505;SDS011;58032;49.820;6.274;2024-03-22T04:50:31;9.10;;;3.40;;
70505;SDS011;58032;49.820;6.274;2024-03-22T04:52:57;8.25;;;3.33;;
70505;SDS011;58032;49.820;6.274;2024-03-22T04:55:23;7.85;;;3.17;;
70505;SDS011;58032;49.820;6.274;2024-03-22T04:57:49;13.02;;;3.30;;
70505;SDS011;58032;49.820;6.274;2024-03-22T05:00:17;7.60;;;3.20;;
70505;SDS011;58032;49.820;6.274;2024-03-22T05:02:43;12.40;;;3.72;;
70505;SDS011;58032;49.820;6.274;2024-03-22T05:05:09;9.23;;;3.42;;
70505;SDS011;58032;49.820;6.274;2024-03-22T05:07:37;10.02;;;3.72;;
70505;SDS011;58032;49.820;6.274;2024-03-22T05:10:03;8.60;;;3.35;;
70505;SDS011;58032;49.820;6.274;2024-03-22T05:12:31;10.27;;;3.37;;
70505;SDS011;58032;49.820;6.274;2024-03-22T05:14:57;9.27;;;3.70;;
70505;SDS011;58032;49.820;6.274;2024-03-22T05:17:23;9.23;;;3.50;;
70505;SDS011;58032;49.820;6.274;2024-03-22T05:19:49;14.35;;;3.60;;
70505;SDS011;58032;49.820;6.274;2024-03-22T05:22:15;7.57;;;3.23;;
70505;SDS011;58032;49.820;6.274;2024-03-22T05:24:41;10.55;;;3.45;;
70505;SDS011;58032;49.820;6.274;2024-03-22T05:27:07;7.68;;;3.22;;
70505;SDS011;58032;49.820;6.274;2024-03-22T05:29:33;7.97;;;3.05;;
70505;SDS011;58032;49.820;6.274;2024-03-22T05:32:00;9.98;;;3.67;;
70505;SDS011;58032;49.820;6.274;2024-03-22T05:34:29;8.93;;;4.23;;
70505;SDS011;58032;49.820;6.274;2024-03-22T05:36:55;8.25;;;3.22;;
70505;SDS011;58032;49.820;6.274;2024-03-22T05:39:21;13.80;;;4.10;;
70505;SDS011;58032;49.820;6.274;2024-03-22T05:41:47;9.73;;;3.53;;
70505;SDS011;58032;49.820;6.274;2024-03-22T05:44:13;7.53;;;3.75;;
70505;SDS011;58032;49.820;6.274;2024-03-22T05:46:39;10.33;;;3.57;;
70505;SDS011;58032;49.820;6.274;2024-03-22T05:49:05;6.82;;;3.22;;
70505;SDS011;58032;49.820;6.274;2024-03-22T05:51:31;7.30;;;3.38;;
70505;SDS011;58032;49.820;6.274;2024-03-22T05:53:57;8.25;;;3.22;;
70505;SDS011;58032;49.820;6.274;2024-03-22T05:56:23;8.55;;;3.28;;
70505;SDS011;58032;49.820;6.274;2024-03-22T05:58:49;7.97;;;3.13;;
70505;SDS011;58032;49.820;6.274;2024-03-22T06:01:15;13.57;;;3.42;;
70505;SDS011;58032;49.820;6.274;2024-03-22T06:03:41;9.90;;;3.72;;
70505;SDS011;58032;49.820;6.274;2024-03-22T06:06:07;7.43;;;3.20;;
70505;SDS011;58032;49.820;6.274;2024-03-22T06:08:33;9.80;;;3.73;;
70505;SDS011;58032;49.820;6.274;2024-03-22T06:11:06;14.10;;;3.90;;
70505;SDS011;58032;49.820;6.274;2024-03-22T06:13:33;7.72;;;3.22;;
70505;SDS011;58032;49.820;6.274;2024-03-22T06:16:00;8.48;;;3.28;;
70505;SDS011;58032;49.820;6.274;2024-03-22T06:18:26;6.30;;;3.30;;
70505;SDS011;58032;49.820;6.274;2024-03-22T06:20:52;6.70;;;3.30;;
70505;SDS011;58032;49.820;6.274;2024-03-22T06:23:21;10.23;;;3.00;;
70505;SDS011;58032;49.820;6.274;2024-03-22T06:25:51;10.77;;;3.67;;
70505;SDS011;58032;49.820;6.274;2024-03-22T06:28:18;7.93;;;3.45;;
70505;SDS011;58032;49.820;6.274;2024-03-22T06:30:44;9.20;;;3.72;;
70505;SDS011;58032;49.820;6.274;2024-03-22T06:33:10;9.30;;;3.10;;
70505;SDS011;58032;49.820;6.274;2024-03-22T06:35:36;9.35;;;3.15;;
70505;SDS011;58032;49.820;6.274;2024-03-22T06:38:02;9.55;;;3.30;;
70505;SDS011;58032;49.820;6.274;2024-03-22T06:40:28;12.85;;;3.67;;
70505;SDS011;58032;49.820;6.274;2024-03-22T06:42:54;9.65;;;4.00;;
70505;SDS011;58032;49.820;6.274;2024-03-22T06:45:20;9.33;;;3.70;;
70505;SDS011;58032;49.820;6.274;2024-03-22T06:47:46;11.20;;;3.63;;
70505;SDS011;58032;49.820;6.274;2024-03-22T06:50:12;8.13;;;3.30;;
70505;SDS011;58032;49.820;6.274;2024-03-22T06:52:39;11.35;;;3.42;;
70505;SDS011;58032;49.820;6.274;2024-03-22T06:55:05;11.40;;;3.50;;
70505;SDS011;58032;49.820;6.274;2024-03-22T06:57:32;10.38;;;3.58;;
70505;SDS011;58032;49.820;6.274;2024-03-22T06:59:59;7.57;;;3.33;;
70505;SDS011;58032;49.820;6.274;2024-03-22T07:02:26;13.50;;;3.97;;
70505;SDS011;58032;49.820;6.274;2024-03-22T07:04:52;7.70;;;3.13;;
70505;SDS011;58032;49.820;6.274;2024-03-22T07:07:18;7.93;;;3.37;;
70505;SDS011;58032;49.820;6.274;2024-03-22T07:09:44;12.18;;;3.03;;
70505;SDS011;58032;49.820;6.274;2024-03-22T07:12:12;10.25;;;3.90;;
70505;SDS011;58032;49.820;6.274;2024-03-22T07:14:38;9.48;;;3.30;;
70505;SDS011;58032;49.820;6.274;2024-03-22T07:17:03;11.98;;;4.07;;
70505;SDS011;58032;49.820;6.274;2024-03-22T07:19:31;7.93;;;3.88;;
70505;SDS011;58032;49.820;6.274;2024-03-22T07:21:58;10.63;;;3.83;;
70505;SDS011;58032;49.820;6.274;2024-03-22T07:24:25;12.85;;;3.42;;
70505;SDS011;58032;49.820;6.274;2024-03-22T07:26:51;7.28;;;3.10;;
70505;SDS011;58032;49.820;6.274;2024-03-22T07:29:17;11.13;;;3.67;;
70505;SDS011;58032;49.820;6.274;2024-03-22T07:31:43;7.75;;;3.17;;
70505;SDS011;58032;49.820;6.274;2024-03-22T07:34:09;8.48;;;3.58;;
70505;SDS011;58032;49.820;6.274;2024-03-22T07:36:39;10.10;;;4.00;;
70505;SDS011;58032;49.820;6.274;2024-03-22T07:39:05;10.23;;;3.53;;
70505;SDS011;58032;49.820;6.274;2024-03-22T07:41:35;9.40;;;3.60;;
70505;SDS011;58032;49.820;6.274;2024-03-22T07:44:01;8.70;;;3.78;;
70505;SDS011;58032;49.820;6.274;2024-03-22T07:46:27;8.93;;;3.53;;
70505;SDS011;58032;49.820;6.274;2024-03-22T07:48:53;10.43;;;4.43;;
70505;SDS011;58032;49.820;6.274;2024-03-22T07:51:19;10.97;;;3.83;;
70505;SDS011;58032;49.820;6.274;2024-03-22T07:53:46;9.80;;;4.00;;
70505;SDS011;58032;49.820;6.274;2024-03-22T07:56:12;10.73;;;3.80;;
70505;SDS011;58032;49.820;6.274;2024-03-22T07:58:38;9.15;;;4.20;;
70505;SDS011;58032;49.820;6.274;2024-03-22T08:01:04;9.55;;;4.30;;
70505;SDS011;58032;49.820;6.274;2024-03-22T08:03:31;8.63;;;3.70;;
70505;SDS011;58032;49.820;6.274;2024-03-22T08:05:57;7.53;;;3.67;;
70505;SDS011;58032;49.820;6.274;2024-03-22T08:08:23;8.95;;;4.13;;
70505;SDS011;58032;49.820;6.274;2024-03-22T08:10:49;10.73;;;3.85;;
70505;SDS011;58032;49.820;6.274;2024-03-22T08:13:15;10.57;;;3.70;;
70505;SDS011;58032;49.820;6.274;2024-03-22T08:15:41;8.53;;;3.60;;
70505;SDS011;58032;49.820;6.274;2024-03-22T08:18:09;9.55;;;4.03;;
70505;SDS011;58032;49.820;6.274;2024-03-22T08:20:35;10.43;;;4.40;;
70505;SDS011;58032;49.820;6.274;2024-03-22T08:23:03;11.60;;;4.30;;
70505;SDS011;58032;49.820;6.274;2024-03-22T08:25:29;10.68;;;4.93;;
70505;SDS011;58032;49.820;6.274;2024-03-22T08:27:55;9.33;;;4.13;;
70505;SDS011;58032;49.820;6.274;2024-03-22T08:30:22;9.90;;;4.32;;
70505;SDS011;58032;49.820;6.274;2024-03-22T08:32:48;10.00;;;3.88;;
70505;SDS011;58032;49.820;6.274;2024-03-22T08:35:15;10.55;;;4.50;;
70505;SDS011;58032;49.820;6.274;2024-03-22T08:37:41;11.32;;;5.10;;
70505;SDS011;58032;49.820;6.274;2024-03-22T08:40:07;9.20;;;5.00;;
70505;SDS011;58032;49.820;6.274;2024-03-22T08:42:34;11.68;;;5.38;;
70505;SDS011;58032;49.820;6.274;2024-03-22T08:45:00;13.55;;;5.63;;
70505;SDS011;58032;49.820;6.274;2024-03-22T08:47:26;12.05;;;5.20;;
70505;SDS011;58032;49.820;6.274;2024-03-22T08:49:52;12.93;;;4.95;;
70505;SDS011;58032;49.820;6.274;2024-03-22T08:52:18;10.80;;;6.03;;
70505;SDS011;58032;49.820;6.274;2024-03-22T08:54:44;12.80;;;6.22;;
70505;SDS011;58032;49.820;6.274;2024-03-22T08:57:10;12.23;;;6.60;;
70505;SDS011;58032;49.820;6.274;2024-03-22T08:59:36;11.05;;;6.28;;
70505;SDS011;58032;49.820;6.274;2024-03-22T09:02:03;11.30;;;6.00;;
70505;SDS011;58032;49.820;6.274;2024-03-22T09:04:29;13.52;;;6.35;;
70505;SDS011;58032;49.820;6.274;2024-03-22T09:06:55;13.82;;;5.78;;
70505;SDS011;58032;49.820;6.274;2024-03-22T09:09:22;13.40;;;6.43;;
70505;SDS011;58032;49.820;6.274;2024-03-22T09:11:48;12.77;;;6.07;;
70505;SDS011;58032;49.820;6.274;2024-03-22T09:14:14;13.80;;;6.47;;
70505;SDS011;58032;49.820;6.274;2024-03-22T09:16:40;12.65;;;6.30;;
70505;SDS011;58032;49.820;6.274;2024-03-22T09:19:06;11.98;;;6.13;;
70505;SDS011;58032;49.820;6.274;2024-03-22T09:21:32;13.10;;;7.20;;
70505;SDS011;58032;49.820;6.274;2024-03-22T09:23:58;14.52;;;7.25;;
70505;SDS011;58032;49.820;6.274;2024-03-22T09:26:24;14.77;;;6.97;;
70505;SDS011;58032;49.820;6.274;2024-03-22T09:28:50;15.20;;;6.78;;
70505;SDS011;58032;49.820;6.274;2024-03-22T09:31:16;18.67;;;7.63;;
70505;SDS011;58032;49.820;6.274;2024-03-22T09:33:42;15.45;;;6.78;;
70505;SDS011;58032;49.820;6.274;2024-03-22T09:36:08;15.32;;;6.82;;
70505;SDS011;58032;49.820;6.274;2024-03-22T09:38:35;13.93;;;7.17;;
70505;SDS011;58032;49.820;6.274;2024-03-22T09:41:01;15.65;;;7.10;;
70505;SDS011;58032;49.820;6.274;2024-03-22T09:43:27;12.55;;;6.55;;
70505;SDS011;58032;49.820;6.274;2024-03-22T09:45:54;12.85;;;6.93;;
70505;SDS011;58032;49.820;6.274;2024-03-22T09:48:21;14.57;;;6.97;;
70505;SDS011;58032;49.820;6.274;2024-03-22T09:50:48;14.67;;;7.10;;
70505;SDS011;58032;49.820;6.274;2024-03-22T09:53:19;16.25;;;8.10;;
70505;SDS011;58032;49.820;6.274;2024-03-22T09:55:47;12.80;;;6.85;;
70505;SDS011;58032;49.820;6.274;2024-03-22T09:58:14;13.60;;;7.68;;
70505;SDS011;58032;49.820;6.274;2024-03-22T10:00:42;14.07;;;7.60;;
70505;SDS011;58032;49.820;6.274;2024-03-22T10:03:09;16.27;;;7.33;;
70505;SDS011;58032;49.820;6.274;2024-03-22T10:05:36;13.75;;;6.95;;
70505;SDS011;58032;49.820;6.274;2024-03-22T10:08:03;15.25;;;7.20;;
70505;SDS011;58032;49.820;6.274;2024-03-22T10:10:31;17.08;;;7.90;;
70505;SDS011;58032;49.820;6.274;2024-03-22T10:13:02;16.88;;;8.65;;
70505;SDS011;58032;49.820;6.274;2024-03-22T10:15:30;17.70;;;8.70;;
70505;SDS011;58032;49.820;6.274;2024-03-22T10:17:56;17.95;;;9.25;;
70505;SDS011;58032;49.820;6.274;2024-03-22T10:20:22;12.75;;;7.25;;
70505;SDS011;58032;49.820;6.274;2024-03-22T10:22:53;14.70;;;7.68;;
70505;SDS011;58032;49.820;6.274;2024-03-22T10:25:22;13.48;;;7.18;;
70505;SDS011;58032;49.820;6.274;2024-03-22T10:27:49;19.53;;;9.03;;
70505;SDS011;58032;49.820;6.274;2024-03-22T10:30:15;16.30;;;8.07;;
70505;SDS011;58032;49.820;6.274;2024-03-22T10:32:43;17.90;;;8.45;;
70505;SDS011;58032;49.820;6.274;2024-03-22T10:35:13;19.15;;;9.43;;
70505;SDS011;58032;49.820;6.274;2024-03-22T10:37:40;18.23;;;9.07;;
70505;SDS011;58032;49.820;6.274;2024-03-22T10:40:07;18.03;;;8.73;;
70505;SDS011;58032;49.820;6.274;2024-03-22T10:42:35;15.15;;;8.25;;
70505;SDS011;58032;49.820;6.274;2024-03-22T10:45:06;20.35;;;9.40;;
70505;SDS011;58032;49.820;6.274;2024-03-22T10:47:34;15.82;;;8.10;;
70505;SDS011;58032;49.820;6.274;2024-03-22T10:55:06;11.85;;;5.68;;
70505;SDS011;58032;49.820;6.274;2024-03-22T10:57:36;16.73;;;7.90;;
70505;SDS011;58032;49.820;6.274;2024-03-22T11:00:04;16.73;;;7.45;;
70505;SDS011;58032;49.820;6.274;2024-03-22T11:02:36;13.38;;;7.38;;
70505;SDS011;58032;49.820;6.274;2024-03-22T11:05:03;18.03;;;8.07;;
70505;SDS011;58032;49.820;6.274;2024-03-22T11:07:31;16.65;;;7.72;;
70505;SDS011;58032;49.820;6.274;2024-03-22T11:09:57;10.80;;;5.55;;
70505;SDS011;58032;49.820;6.274;2024-03-22T11:12:26;14.77;;;6.85;;
70505;SDS011;58032;49.820;6.274;2024-03-22T11:14:53;15.38;;;7.25;;
70505;SDS011;58032;49.820;6.274;2024-03-22T11:17:19;10.80;;;5.30;;
70505;SDS011;58032;49.820;6.274;2024-03-22T11:19:51;15.90;;;6.80;;
70505;SDS011;58032;49.820;6.274;2024-03-22T11:22:17;12.13;;;6.38;;
70505;SDS011;58032;49.820;6.274;2024-03-22T11:24:44;9.30;;;5.00;;
70505;SDS011;58032;49.820;6.274;2024-03-22T11:27:10;11.73;;;5.80;;
70505;SDS011;58032;49.820;6.274;2024-03-22T11:29:38;13.83;;;5.83;;
70505;SDS011;58032;49.820;6.274;2024-03-22T11:32:07;8.77;;;3.85;;
70505;SDS011;58032;49.820;6.274;2024-03-22T11:34:36;11.38;;;5.35;;
70505;SDS011;58032;49.820;6.274;2024-03-22T11:37:07;11.80;;;5.65;;
70505;SDS011;58032;49.820;6.274;2024-03-22T11:39:36;11.43;;;4.25;;
70505;SDS011;58032;49.820;6.274;2024-03-22T11:42:03;9.80;;;4.57;;
70505;SDS011;58032;49.820;6.274;2024-03-22T11:44:32;10.23;;;5.00;;
70505;SDS011;58032;49.820;6.274;2024-03-22T11:46:59;9.68;;;5.05;;
70505;SDS011;58032;49.820;6.274;2024-03-22T11:49:25;13.57;;;5.30;;
70505;SDS011;58032;49.820;6.274;2024-03-22T11:51:52;13.35;;;5.82;;
70505;SDS011;58032;49.820;6.274;2024-03-22T11:54:21;10.23;;;5.43;;
70505;SDS011;58032;49.820;6.274;2024-03-22T11:56:47;12.95;;;5.60;;
70505;SDS011;58032;49.820;6.274;2024-03-22T11:59:13;9.02;;;4.75;;
70505;SDS011;58032;49.820;6.274;2024-03-22T12:01:42;12.48;;;5.65;;
70505;SDS011;58032;49.820;6.274;2024-03-22T12:04:08;9.68;;;4.82;;
70505;SDS011;58032;49.820;6.274;2024-03-22T12:06:49;12.87;;;4.97;;
70505;SDS011;58032;49.820;6.274;2024-03-22T12:09:15;12.90;;;5.20;;
70505;SDS011;58032;49.820;6.274;2024-03-22T12:11:41;10.48;;;4.38;;
70505;SDS011;58032;49.820;6.274;2024-03-22T12:14:07;9.75;;;4.43;;
70505;SDS011;58032;49.820;6.274;2024-03-22T12:16:33;8.50;;;4.40;;
70505;SDS011;58032;49.820;6.274;2024-03-22T12:18:59;8.53;;;4.43;;
70505;SDS011;58032;49.820;6.274;2024-03-22T12:21:25;11.15;;;5.40;;
70505;SDS011;58032;49.820;6.274;2024-03-22T12:23:51;11.18;;;5.30;;
70505;SDS011;58032;49.820;6.274;2024-03-22T12:26:18;11.68;;;5.28;;
70505;SDS011;58032;49.820;6.274;2024-03-22T12:28:44;10.32;;;5.47;;
70505;SDS011;58032;49.820;6.274;2024-03-22T12:31:10;11.83;;;5.67;;
70505;SDS011;58032;49.820;6.274;2024-03-22T12:33:36;10.90;;;5.15;;
70505;SDS011;58032;49.820;6.274;2024-03-22T12:36:03;10.43;;;5.30;;
70505;SDS011;58032;49.820;6.274;2024-03-22T12:38:29;17.35;;;6.60;;
70505;SDS011;58032;49.820;6.274;2024-03-22T12:40:56;14.07;;;6.10;;
70505;SDS011;58032;49.820;6.274;2024-03-22T12:43:22;14.97;;;6.20;;
70505;SDS011;58032;49.820;6.274;2024-03-22T12:45:48;15.50;;;5.88;;
70505;SDS011;58032;49.820;6.274;2024-03-22T12:48:16;13.85;;;5.88;;
70505;SDS011;58032;49.820;6.274;2024-03-22T12:50:41;12.43;;;6.45;;
70505;SDS011;58032;49.820;6.274;2024-03-22T12:53:08;10.20;;;5.22;;
70505;SDS011;58032;49.820;6.274;2024-03-22T12:55:34;10.50;;;4.43;;
70505;SDS011;58032;49.820;6.274;2024-03-22T12:58:00;6.70;;;3.17;;
70505;SDS011;58032;49.820;6.274;2024-03-22T13:00:26;10.43;;;4.00;;
70505;SDS011;58032;49.820;6.274;2024-03-22T13:02:52;8.05;;;4.05;;
70505;SDS011;58032;49.820;6.274;2024-03-22T13:05:18;8.13;;;3.90;;
70505;SDS011;58032;49.820;6.274;2024-03-22T13:07:45;7.50;;;3.90;;
70505;SDS011;58032;49.820;6.274;2024-03-22T13:10:11;8.60;;;3.60;;
70505;SDS011;58032;49.820;6.274;2024-03-22T13:12:37;7.60;;;3.22;;
70505;SDS011;58032;49.820;6.274;2024-03-22T13:15:03;8.10;;;3.88;;
70505;SDS011;58032;49.820;6.274;2024-03-22T13:17:30;8.57;;;4.00;;
70505;SDS011;58032;49.820;6.274;2024-03-22T13:19:57;9.20;;;4.30;;
70505;SDS011;58032;49.820;6.274;2024-03-22T13:22:23;10.13;;;4.30;;
70505;SDS011;58032;49.820;6.274;2024-03-22T13:24:49;9.52;;;4.53;;
70505;SDS011;58032;49.820;6.274;2024-03-22T13:27:16;9.88;;;3.83;;
70505;SDS011;58032;49.820;6.274;2024-03-22T13:29:42;6.13;;;2.70;;
70505;SDS011;58032;49.820;6.274;2024-03-22T13:32:09;8.50;;;4.10;;
70505;SDS011;58032;49.820;6.274;2024-03-22T13:34:35;8.73;;;3.97;;
70505;SDS011;58032;49.820;6.274;2024-03-22T13:37:02;8.20;;;4.20;;
70505;SDS011;58032;49.820;6.274;2024-03-22T13:39:29;11.20;;;3.92;;
70505;SDS011;58032;49.820;6.274;2024-03-22T13:41:56;7.55;;;4.20;;
70505;SDS011;58032;49.820;6.274;2024-03-22T13:44:22;8.97;;;4.70;;
70505;SDS011;58032;49.820;6.274;2024-03-22T13:46:49;7.75;;;4.10;;
70505;SDS011;58032;49.820;6.274;2024-03-22T13:49:16;9.55;;;4.32;;
70505;SDS011;58032;49.820;6.274;2024-03-22T13:51:44;8.05;;;4.10;;
70505;SDS011;58032;49.820;6.274;2024-03-22T13:54:11;8.57;;;3.80;;
70505;SDS011;58032;49.820;6.274;2024-03-22T13:56:37;7.57;;;4.17;;
70505;SDS011;58032;49.820;6.274;2024-03-22T13:59:04;10.57;;;4.32;;
70505;SDS011;58032;49.820;6.274;2024-03-22T14:01:40;9.15;;;3.80;;
70505;SDS011;58032;49.820;6.274;2024-03-22T14:04:07;10.82;;;3.35;;
70505;SDS011;58032;49.820;6.274;2024-03-22T14:06:36;9.60;;;4.07;;
70505;SDS011;58032;49.820;6.274;2024-03-22T14:09:03;9.73;;;4.23;;
70505;SDS011;58032;49.820;6.274;2024-03-22T14:11:30;9.52;;;4.03;;
70505;SDS011;58032;49.820;6.274;2024-03-22T14:13:57;10.38;;;4.63;;
70505;SDS011;58032;49.820;6.274;2024-03-22T14:16:23;7.22;;;3.25;;
70505;SDS011;58032;49.820;6.274;2024-03-22T14:18:49;8.52;;;3.58;;
70505;SDS011;58032;49.820;6.274;2024-03-22T14:21:16;7.57;;;3.67;;
70505;SDS011;58032;49.820;6.274;2024-03-22T14:23:48;9.02;;;2.67;;
70505;SDS011;58032;49.820;6.274;2024-03-22T14:26:17;8.77;;;2.80;;
70505;SDS011;58032;49.820;6.274;2024-03-22T14:28:44;5.97;;;2.90;;
70505;SDS011;58032;49.820;6.274;2024-03-22T14:31:10;7.72;;;3.20;;
70505;SDS011;58032;49.820;6.274;2024-03-22T14:33:37;6.63;;;3.00;;
70505;SDS011;58032;49.820;6.274;2024-03-22T14:36:04;5.80;;;2.88;;
70505;SDS011;58032;49.820;6.274;2024-03-22T14:38:32;7.10;;;3.50;;
70505;SDS011;58032;49.820;6.274;2024-03-22T14:40:58;8.93;;;3.40;;
70505;SDS011;58032;49.820;6.274;2024-03-22T14:43:25;7.28;;;2.97;;
70505;SDS011;58032;49.820;6.274;2024-03-22T14:45:51;7.33;;;2.70;;
70505;SDS011;58032;49.820;6.274;2024-03-22T14:48:19;5.47;;;2.30;;